Time;durP1;ratioP1;P1;durP2;ratioP2;P2;SDS_P1;SDS_P2;PMS_P1;PMS_P2;Temp;Humidity;BMP_temperature;BMP_pressure;BME280_temperature;BME280_humidity;BME280_pressure;Samples;Min_cycle;Max_cycle;Signal;HPM_P1;HPM_P2
2023/01/12 00:01:43;;;;;;;14.20;2.45;;;7.90;99.90;;;;;;5065999;28;20360;-67
2023/01/12 00:04:13;;;;;;;20.52;3.40;;;7.90;99.90;;;;;;5071686;28;20084;-69
2023/01/12 00:06:39;;;;;;;12.77;3.00;;;7.90;99.90;;;;;;5071438;28;20078;-68
2023/01/12 00:09:06;;;;;;;20.67;3.35;;;7.90;99.90;;;;;;5082192;28;20683;-68
2023/01/12 00:11:32;;;;;;;19.90;4.22;;;7.90;99.90;;;;;;5071817;28;20490;-68
2023/01/12 00:13:58;;;;;;;22.58;3.83;;;7.90;99.90;;;;;;5071231;28;20037;-69
2023/01/12 00:16:33;;;;;;;19.40;3.33;;;7.90;99.90;;;;;;5071826;28;20059;-68
2023/01/12 00:19:11;;;;;;;22.50;3.70;;;7.90;99.90;;;;;;5070398;28;20040;-68
2023/01/12 00:24:29;;;;;;;13.57;2.60;;;8.00;99.90;;;;;;5071763;28;20078;-67
2023/01/12 00:26:57;;;;;;;18.85;3.17;;;8.00;99.90;;;;;;5071464;28;20036;-68
2023/01/12 00:29:25;;;;;;;15.02;2.97;;;8.10;99.90;;;;;;5070196;28;20488;-67
2023/01/12 00:31:52;;;;;;;21.55;3.30;;;8.10;99.90;;;;;;5071553;28;20037;-69
2023/01/12 00:34:18;;;;;;;20.45;3.05;;;8.10;99.90;;;;;;5071094;28;20048;-68
2023/01/12 00:36:45;;;;;;;13.98;2.78;;;8.10;99.90;;;;;;5071187;28;20106;-66
2023/01/12 00:39:11;;;;;;;16.58;3.05;;;8.10;99.90;;;;;;5070548;28;20056;-66
2023/01/12 00:47:23;;;;;;;14.85;3.63;;;8.20;99.90;;;;;;5033235;28;20447;-69
2023/01/12 00:49:49;;;;;;;17.45;2.53;;;8.20;99.90;;;;;;5031020;28;20114;-69
2023/01/12 00:52:17;;;;;;;20.30;3.90;;;8.20;99.90;;;;;;5032941;28;20064;-69
2023/01/12 00:54:43;;;;;;;21.40;2.83;;;8.20;99.90;;;;;;5011427;28;20381;-67
2023/01/12 00:57:10;;;;;;;20.65;2.88;;;8.20;99.90;;;;;;5033077;28;20056;-67
2023/01/12 00:59:36;;;;;;;17.48;3.30;;;8.20;99.90;;;;;;5033408;28;20028;-68
2023/01/12 01:02:03;;;;;;;27.42;3.28;;;8.20;99.90;;;;;;5026398;28;20114;-67
2023/01/12 01:04:31;;;;;;;14.77;2.75;;;8.20;99.90;;;;;;5033018;28;20045;-68
2023/01/12 01:06:56;;;;;;;13.98;3.03;;;8.10;99.90;;;;;;5032795;28;20128;-67
2023/01/12 01:09:22;;;;;;;16.50;2.78;;;8.20;99.90;;;;;;5032855;28;20156;-67
2023/01/12 01:11:48;;;;;;;15.02;2.90;;;8.10;99.90;;;;;;5032428;28;20045;-67
2023/01/12 01:14:14;;;;;;;17.45;2.65;;;8.20;99.90;;;;;;5032211;28;20114;-67
2023/01/12 01:16:39;;;;;;;17.42;3.40;;;8.20;99.90;;;;;;5031526;28;20094;-68
2023/01/12 01:19:05;;;;;;;19.15;3.10;;;8.20;99.90;;;;;;5032561;28;20419;-66
2023/01/12 01:21:34;;;;;;;17.15;3.70;;;8.20;99.90;;;;;;5034348;28;20057;-67
2023/01/12 01:24:00;;;;;;;19.58;3.42;;;8.20;99.90;;;;;;5067852;28;20079;-68
2023/01/12 01:26:25;;;;;;;14.13;3.00;;;8.20;99.90;;;;;;5070440;28;20075;-67
2023/01/12 01:28:51;;;;;;;15.32;2.95;;;8.20;99.90;;;;;;5070413;28;20093;-67
2023/01/12 01:31:20;;;;;;;18.10;2.78;;;8.20;99.90;;;;;;5069657;28;20080;-68
2023/01/12 01:33:46;;;;;;;13.13;2.85;;;8.20;99.90;;;;;;5052920;28;20509;-66
2023/01/12 01:36:12;;;;;;;18.23;3.78;;;8.20;99.90;;;;;;5069595;28;20063;-68
2023/01/12 01:38:38;;;;;;;23.27;3.20;;;8.20;99.90;;;;;;5068630;28;20076;-68
2023/01/12 01:41:05;;;;;;;20.27;3.38;;;8.20;99.90;;;;;;5067308;28;20120;-67
2023/01/12 01:43:57;;;;;;;17.60;3.50;;;8.30;99.90;;;;;;5067794;28;20101;-67
2023/01/12 01:46:30;;;;;;;17.40;3.97;;;8.30;99.90;;;;;;5069995;28;20502;-68
2023/01/12 01:48:59;;;;;;;15.88;2.42;;;8.30;99.90;;;;;;5070013;28;20068;-69
2023/01/12 01:51:24;;;;;;;14.55;2.13;;;8.30;99.90;;;;;;5069460;28;20044;-69
2023/01/12 01:53:50;;;;;;;19.05;2.63;;;8.30;99.90;;;;;;5052395;28;20435;-67
2023/01/12 01:56:26;;;;;;;14.80;2.75;;;8.20;99.90;;;;;;5069169;28;20503;-69
2023/01/12 01:59:02;;;;;;;13.68;2.58;;;8.20;99.90;;;;;;5070112;28;20426;-67
2023/01/12 02:01:28;;;;;;;26.95;5.57;;;8.20;99.90;;;;;;5069347;28;20048;-69
2023/01/12 02:03:55;;;;;;;16.88;3.72;;;8.20;99.90;;;;;;5068613;28;20143;-68
2023/01/12 02:06:24;;;;;;;18.05;3.17;;;8.20;99.90;;;;;;5068983;28;20042;-69
2023/01/12 02:09:18;;;;;;;24.95;3.42;;;8.20;99.90;;;;;;5069036;28;20535;-69
2023/01/12 02:17:44;;;;;;;23.80;3.60;;;8.20;99.90;;;;;;5008681;28;20420;-68
2023/01/12 02:20:32;;;;;;;19.27;3.25;;;8.20;99.90;;;;;;5011666;28;20141;-68
2023/01/12 02:23:24;;;;;;;21.08;3.95;;;8.20;99.90;;;;;;5028462;28;20159;-68
2023/01/12 02:26:14;;;;;;;24.27;3.00;;;8.20;99.90;;;;;;5009950;28;20049;-69
2023/01/12 02:28:48;;;;;;;21.90;3.33;;;8.20;99.90;;;;;;5011235;28;20092;-68
2023/01/12 02:31:49;;;;;;;17.17;3.42;;;8.30;99.90;;;;;;5011671;28;20037;-69
2023/01/12 02:34:24;;;;;;;25.98;3.78;;;8.30;99.90;;;;;;4930997;29;20060;-66
2023/01/12 02:37:16;;;;;;;15.00;3.08;;;8.30;99.90;;;;;;4931438;29;20087;-69
2023/01/12 02:40:04;;;;;;;16.30;3.53;;;8.30;99.90;;;;;;4931370;29;20047;-67
2023/01/12 02:43:01;;;;;;;18.30;3.00;;;8.40;99.90;;;;;;4877182;29;20062;-68
2023/01/12 02:45:49;;;;;;;18.15;3.10;;;8.40;99.90;;;;;;4863779;29;20048;-68
2023/01/12 02:48:46;;;;;;;17.25;4.35;;;8.40;99.90;;;;;;4884299;29;20048;-69
2023/01/12 02:51:28;;;;;;;18.17;2.97;;;8.40;99.90;;;;;;4909046;29;20532;-67
2023/01/12 02:54:00;;;;;;;17.35;3.22;;;8.40;99.90;;;;;;4910996;29;20094;-68
2023/01/12 02:56:42;;;;;;;13.30;3.40;;;8.40;99.90;;;;;;4911639;29;20213;-67
2023/01/12 02:59:15;;;;;;;20.50;3.42;;;8.50;99.90;;;;;;4911423;29;20128;-68
2023/01/12 03:01:47;;;;;;;17.73;4.03;;;8.50;99.90;;;;;;4910018;29;20048;-67
2023/01/12 03:04:16;;;;;;;18.83;3.30;;;8.40;99.90;;;;;;4908365;29;20041;-70
2023/01/12 03:06:57;;;;;;;13.50;2.92;;;8.40;99.90;;;;;;4908665;29;20080;-67
2023/01/12 03:09:42;;;;;;;18.58;3.25;;;8.40;99.90;;;;;;4908133;29;20190;-66
2023/01/12 03:12:19;;;;;;;19.08;3.45;;;8.40;99.90;;;;;;4960423;28;20061;-67
2023/01/12 03:14:47;;;;;;;15.98;2.70;;;8.40;99.90;;;;;;4971953;28;20153;-67
2023/01/12 03:17:24;;;;;;;14.68;2.80;;;8.40;99.90;;;;;;4971784;28;20054;-68
2023/01/12 03:19:51;;;;;;;15.45;3.10;;;8.40;99.90;;;;;;5026001;28;20059;-68
2023/01/12 03:22:18;;;;;;;13.95;3.08;;;8.40;99.90;;;;;;5068055;28;20127;-67
2023/01/12 03:24:52;;;;;;;13.15;2.72;;;8.40;99.90;;;;;;5068889;28;20134;-67
2023/01/12 03:27:26;;;;;;;13.68;2.70;;;8.40;99.90;;;;;;5072615;28;20490;-69
2023/01/12 03:29:59;;;;;;;8.60;2.63;;;8.40;99.90;;;;;;5072763;28;20036;-69
2023/01/12 03:32:26;;;;;;;11.82;2.13;;;8.40;99.90;;;;;;5072550;28;20119;-66
2023/01/12 03:34:52;;;;;;;5.78;1.95;;;8.40;99.90;;;;;;5072330;28;20482;-67
2023/01/12 03:37:31;;;;;;;12.18;2.20;;;8.50;99.90;;;;;;5054237;28;20110;-68
2023/01/12 03:40:10;;;;;;;9.68;2.50;;;8.40;99.90;;;;;;5070695;28;20055;-68
2023/01/12 03:42:55;;;;;;;8.77;2.33;;;8.40;99.90;;;;;;5072200;28;20068;-67
2023/01/12 03:45:27;;;;;;;10.15;2.83;;;8.40;99.90;;;;;;5072123;28;20041;-68
2023/01/12 03:48:11;;;;;;;10.95;2.15;;;8.40;99.90;;;;;;5066933;28;20037;-68
2023/01/12 03:51:04;;;;;;;11.40;2.50;;;8.40;99.90;;;;;;5071905;28;20041;-68
2023/01/12 03:53:31;;;;;;;9.13;2.25;;;8.40;99.90;;;;;;5073439;28;20132;-68
2023/01/12 03:56:02;;;;;;;10.80;2.20;;;8.40;99.90;;;;;;5071776;28;20044;-68
2023/01/12 03:58:28;;;;;;;8.10;2.30;;;8.40;99.90;;;;;;5070723;28;20123;-67
2023/01/12 04:00:54;;;;;;;9.68;2.10;;;8.40;99.90;;;;;;5071876;28;20146;-68
2023/01/12 04:03:20;;;;;;;8.88;2.42;;;8.40;99.90;;;;;;5071337;28;20102;-69
2023/01/12 04:05:45;;;;;;;10.85;2.30;;;8.40;99.90;;;;;;5070484;28;20041;-67
2023/01/12 04:08:13;;;;;;;7.30;1.63;;;8.40;99.90;;;;;;5085909;28;20444;-69
2023/01/12 04:10:39;;;;;;;8.73;2.05;;;8.40;99.90;;;;;;5071673;28;20079;-68
2023/01/12 04:13:05;;;;;;;9.50;2.30;;;8.40;99.90;;;;;;5071693;28;20087;-67
2023/01/12 04:15:30;;;;;;;5.45;1.40;;;8.40;99.90;;;;;;5071402;28;20094;-66
2023/01/12 04:17:56;;;;;;;6.63;1.50;;;8.50;99.90;;;;;;5071382;28;20398;-68
2023/01/12 04:20:22;;;;;;;7.57;1.60;;;8.50;99.90;;;;;;5070994;28;20065;-67
2023/01/12 04:22:48;;;;;;;7.28;1.70;;;8.50;99.90;;;;;;5071527;28;20071;-68
2023/01/12 04:25:16;;;;;;;5.95;1.30;;;8.50;99.90;;;;;;5071659;28;20472;-66
2023/01/12 04:27:52;;;;;;;9.75;1.67;;;8.50;99.90;;;;;;5071439;28;20086;-68
2023/01/12 04:30:22;;;;;;;6.82;1.70;;;8.50;99.90;;;;;;5070570;28;20055;-69
2023/01/12 04:32:48;;;;;;;7.30;1.80;;;8.40;99.90;;;;;;5071189;28;20387;-68
2023/01/12 04:35:15;;;;;;;8.05;1.52;;;8.40;99.90;;;;;;5071348;28;20040;-68
2023/01/12 04:37:41;;;;;;;9.43;2.45;;;8.40;99.90;;;;;;5070222;28;20044;-71
2023/01/12 04:40:08;;;;;;;8.73;1.80;;;8.40;99.90;;;;;;5069570;28;20193;-69
2023/01/12 04:45:18;;;;;;;4.63;1.40;;;8.30;99.90;;;;;;5071098;28;20498;-66
2023/01/12 04:47:43;;;;;;;4.50;1.30;;;8.30;99.90;;;;;;5071077;28;20033;-68
2023/01/12 04:50:09;;;;;;;6.15;1.50;;;8.30;99.90;;;;;;5070691;28;20403;-68
2023/01/12 04:52:36;;;;;;;5.82;1.20;;;8.30;99.90;;;;;;5069573;28;20059;-67
2023/01/12 04:55:02;;;;;;;4.50;1.10;;;8.30;99.90;;;;;;5071015;28;20040;-68
2023/01/12 04:57:28;;;;;;;4.05;1.10;;;8.20;99.90;;;;;;5070423;28;20047;-67
2023/01/12 04:59:53;;;;;;;5.10;1.30;;;8.20;99.90;;;;;;5070716;28;20480;-68
2023/01/12 05:02:19;;;;;;;3.63;1.33;;;8.20;99.90;;;;;;5068639;28;20492;-67
2023/01/12 05:04:48;;;;;;;2.75;0.90;;;8.20;99.90;;;;;;5053769;28;20128;-66
2023/01/12 05:07:15;;;;;;;5.03;1.30;;;8.20;99.90;;;;;;5071201;28;20082;-67
2023/01/12 05:12:25;;;;;;;3.45;1.10;;;8.20;99.90;;;;;;5069629;28;20054;-65
2023/01/12 05:14:51;;;;;;;4.45;1.00;;;8.20;99.90;;;;;;5070139;28;20036;-66
2023/01/12 05:17:17;;;;;;;2.85;1.13;;;8.20;99.90;;;;;;5065836;28;20470;-70
2023/01/12 05:19:42;;;;;;;6.43;1.17;;;8.20;99.90;;;;;;5053177;28;20094;-68
2023/01/12 05:22:08;;;;;;;4.03;1.30;;;8.20;99.90;;;;;;5069920;28;20491;-69
2023/01/12 05:24:33;;;;;;;4.20;0.90;;;8.10;99.90;;;;;;5068679;28;20104;-67
2023/01/12 05:27:00;;;;;;;6.65;1.20;;;8.10;99.90;;;;;;5068664;28;20044;-67
2023/01/12 05:29:26;;;;;;;3.17;1.00;;;8.10;99.90;;;;;;5070153;28;20047;-67
2023/01/12 05:31:52;;;;;;;4.00;0.90;;;8.10;99.90;;;;;;5070258;28;20547;-67
2023/01/12 05:34:18;;;;;;;3.97;1.20;;;8.10;99.90;;;;;;5066118;28;20048;-69
2023/01/12 05:36:45;;;;;;;5.75;1.17;;;8.10;99.90;;;;;;5071011;28;20498;-69
2023/01/12 05:39:11;;;;;;;5.30;1.10;;;8.10;99.90;;;;;;5070040;28;20120;-67
2023/01/12 05:41:36;;;;;;;2.85;0.90;;;8.10;99.90;;;;;;5069707;28;20135;-69
2023/01/12 05:44:02;;;;;;;6.93;1.00;;;8.10;99.90;;;;;;5068619;28;20111;-67
2023/01/12 05:46:30;;;;;;;5.63;1.27;;;8.10;99.90;;;;;;5068942;28;20123;-68
2023/01/12 05:48:57;;;;;;;2.58;0.93;;;8.10;99.90;;;;;;5070808;28;20738;-68
2023/01/12 05:51:25;;;;;;;4.03;1.10;;;8.20;99.90;;;;;;5070105;28;20372;-68
2023/01/12 05:53:50;;;;;;;3.25;0.90;;;8.20;99.90;;;;;;5052970;28;20052;-68
2023/01/12 05:56:20;;;;;;;4.28;1.00;;;8.20;99.90;;;;;;5068109;28;20368;-69
2023/01/12 05:58:57;;;;;;;4.18;1.10;;;8.20;99.90;;;;;;5069497;28;20055;-67
2023/01/12 06:01:23;;;;;;;4.35;0.88;;;8.20;99.90;;;;;;5069683;28;20076;-69
2023/01/12 06:03:50;;;;;;;3.67;1.00;;;8.20;99.90;;;;;;5069291;28;20114;-68
2023/01/12 06:06:17;;;;;;;4.88;1.40;;;8.20;99.90;;;;;;5068254;28;20072;-69
2023/01/12 06:08:44;;;;;;;4.05;1.02;;;8.30;99.90;;;;;;5064512;28;20027;-68
2023/01/12 06:13:55;;;;;;;4.45;0.80;;;8.30;99.90;;;;;;5069710;28;20476;-67
2023/01/12 06:13:58;;;;;;;3.95;0.90;;;8.30;99.90;;;;;;5069268;28;20044;-68
2023/01/12 06:16:24;;;;;;;4.47;0.93;;;8.30;99.90;;;;;;5069372;28;20134;-67
2023/01/12 06:18:50;;;;;;;7.22;1.17;;;8.30;99.90;;;;;;5067417;28;20127;-68
2023/01/12 06:21:16;;;;;;;2.25;0.90;;;8.40;99.90;;;;;;5068580;28;20448;-69
2023/01/12 06:23:41;;;;;;;5.43;1.30;;;8.40;99.90;;;;;;5069405;28;20040;-68
2023/01/12 06:26:08;;;;;;;2.65;0.93;;;8.40;99.90;;;;;;5068788;28;20040;-69
2023/01/12 06:28:38;;;;;;;3.67;1.10;;;8.50;99.90;;;;;;5066119;28;20111;-68
2023/01/12 06:31:09;;;;;;;2.75;1.00;;;8.50;99.90;;;;;;5068520;28;20040;-68
2023/01/12 06:33:35;;;;;;;3.20;1.20;;;8.50;99.90;;;;;;5064729;28;20169;-68
2023/01/12 06:36:01;;;;;;;2.00;0.95;;;8.60;99.90;;;;;;5066028;28;20045;-68
2023/01/12 06:38:29;;;;;;;2.22;1.05;;;8.60;99.90;;;;;;5068745;28;20042;-67
2023/01/12 06:40:59;;;;;;;3.67;1.10;;;8.60;99.90;;;;;;5067406;28;20056;-68
2023/01/12 06:43:25;;;;;;;2.20;1.48;;;8.70;99.90;;;;;;5068837;28;21026;-66
2023/01/12 06:45:54;;;;;;;1.27;0.93;;;8.70;99.90;;;;;;5052312;28;20048;-68
2023/01/12 06:48:22;;;;;;;2.78;1.60;;;8.70;99.90;;;;;;5068405;28;20036;-66
2023/01/12 06:50:48;;;;;;;2.47;1.25;;;8.70;99.90;;;;;;5049828;28;20056;-67
2023/01/12 06:53:14;;;;;;;3.20;1.20;;;8.70;99.90;;;;;;5065233;28;20072;-68
2023/01/12 06:55:47;;;;;;;2.20;1.42;;;8.70;99.90;;;;;;5065485;28;20580;-68
2023/01/12 06:58:13;;;;;;;2.75;1.40;;;8.70;99.90;;;;;;5068264;28;20137;-67
2023/01/12 07:00:38;;;;;;;3.08;1.30;;;8.70;99.90;;;;;;5068165;28;20457;-67
2023/01/12 07:03:04;;;;;;;1.67;1.23;;;8.70;99.90;;;;;;5068289;28;20040;-68
2023/01/12 07:05:30;;;;;;;2.25;1.50;;;8.70;99.90;;;;;;5067821;28;20094;-68
2023/01/12 07:07:59;;;;;;;4.30;1.40;;;8.70;99.90;;;;;;5070257;28;20039;-68
2023/01/12 07:10:25;;;;;;;1.85;1.20;;;8.70;99.90;;;;;;5068720;28;20055;-67
2023/01/12 07:12:51;;;;;;;1.83;1.40;;;8.70;99.90;;;;;;5067398;28;20044;-67
2023/01/12 07:15:17;;;;;;;2.40;1.40;;;8.70;99.90;;;;;;5068927;28;20056;-67
2023/01/12 07:17:42;;;;;;;3.28;1.75;;;8.80;99.90;;;;;;5068937;28;20048;-67
2023/01/12 07:20:09;;;;;;;2.65;1.77;;;8.80;99.90;;;;;;5068759;28;20123;-67
2023/01/12 07:22:34;;;;;;;2.50;1.80;;;8.80;99.90;;;;;;5068247;28;20076;-67
2023/01/12 07:25:00;;;;;;;2.40;1.80;;;8.80;99.90;;;;;;5068770;28;20471;-68
2023/01/12 07:27:25;;;;;;;3.35;1.77;;;8.90;99.90;;;;;;5067722;28;20083;-68
2023/01/12 07:29:51;;;;;;;3.38;2.10;;;8.90;99.90;;;;;;5068690;28;20080;-67
2023/01/12 07:32:17;;;;;;;2.70;2.28;;;8.90;99.90;;;;;;5068721;28;20059;-68
2023/01/12 07:34:43;;;;;;;2.80;2.10;;;8.90;99.90;;;;;;5068576;28;20032;-67
2023/01/12 07:37:09;;;;;;;3.28;2.30;;;8.90;99.90;;;;;;5068332;28;20048;-69
2023/01/12 07:39:35;;;;;;;2.65;2.22;;;9.00;99.90;;;;;;5068459;28;20204;-67
2023/01/12 07:44:44;;;;;;;4.30;2.20;;;9.00;99.90;;;;;;5068189;28;20090;-68
2023/01/12 07:47:10;;;;;;;5.53;2.80;;;9.00;99.90;;;;;;5068533;28;20053;-68
2023/01/12 07:49:36;;;;;;;3.20;2.63;;;9.00;99.90;;;;;;5068315;28;20044;-68
2023/01/12 07:52:01;;;;;;;3.55;2.80;;;9.00;99.90;;;;;;5067845;28;20047;-66
2023/01/12 07:54:28;;;;;;;4.13;2.50;;;9.00;99.90;;;;;;5068261;28;20032;-68
2023/01/12 07:56:57;;;;;;;3.95;2.90;;;9.00;99.90;;;;;;5068620;28;20120;-70
2023/01/12 07:59:23;;;;;;;4.63;3.20;;;9.10;99.90;;;;;;5050923;28;20047;-66
2023/01/12 08:01:49;;;;;;;5.78;3.50;;;9.10;99.90;;;;;;5067173;28;20037;-68
2023/01/12 08:04:14;;;;;;;7.10;3.25;;;9.10;99.90;;;;;;5067585;28;20052;-70
2023/01/12 08:06:40;;;;;;;6.32;3.42;;;9.10;99.90;;;;;;5068404;28;20044;-66
2023/01/12 08:09:05;;;;;;;8.32;3.70;;;9.10;99.90;;;;;;5068631;28;20390;-67
2023/01/12 08:11:31;;;;;;;6.07;3.25;;;9.20;99.90;;;;;;5068609;28;20094;-66
2023/01/12 08:13:57;;;;;;;11.45;3.17;;;9.20;99.90;;;;;;5072197;28;20056;-68
2023/01/12 08:16:30;;;;;;;15.73;3.92;;;9.20;99.90;;;;;;5055654;28;20049;-69
2023/01/12 08:19:04;;;;;;;11.98;3.67;;;9.20;99.90;;;;;;5072488;28;20491;-68
2023/01/12 08:21:40;;;;;;;11.38;3.15;;;9.30;99.90;;;;;;5072355;28;20498;-69
2023/01/12 08:24:08;;;;;;;11.35;3.33;;;9.30;99.90;;;;;;5055469;28;20040;-68
2023/01/12 08:26:37;;;;;;;12.80;3.28;;;9.30;99.90;;;;;;5055228;28;20103;-68
2023/01/12 08:29:30;;;;;;;17.13;3.33;;;9.40;99.90;;;;;;5072101;28;20041;-68
2023/01/12 08:32:05;;;;;;;24.60;3.45;;;9.40;99.90;;;;;;5071738;28;20041;-69
2023/01/12 08:34:33;;;;;;;27.98;3.63;;;9.60;99.90;;;;;;5071846;28;20048;-69
2023/01/12 08:37:04;;;;;;;26.35;4.00;;;9.70;99.90;;;;;;5071907;28;20039;-69
2023/01/12 08:39:30;;;;;;;29.88;4.82;;;9.80;99.90;;;;;;5071981;28;20390;-69
2023/01/12 08:41:55;;;;;;;24.33;3.65;;;9.80;99.90;;;;;;5071457;28;20051;-68
2023/01/12 08:44:21;;;;;;;25.30;3.70;;;9.90;99.90;;;;;;5073097;28;20060;-67
2023/01/12 08:46:50;;;;;;;38.05;5.03;;;10.00;99.90;;;;;;5054705;28;20375;-67
2023/01/12 08:49:22;;;;;;;32.90;3.83;;;10.00;99.90;;;;;;5071639;28;20119;-68
2023/01/12 08:51:47;;;;;;;24.27;3.65;;;10.10;99.90;;;;;;5071723;28;20041;-67
2023/01/12 08:54:14;;;;;;;24.88;3.85;;;10.10;99.90;;;;;;5071543;28;20051;-69
2023/01/12 08:56:40;;;;;;;29.63;4.63;;;10.10;99.90;;;;;;5071404;28;20052;-67
2023/01/12 08:59:06;;;;;;;23.02;3.60;;;10.20;99.90;;;;;;5071618;28;20051;-68
2023/01/12 09:01:33;;;;;;;21.42;3.60;;;10.20;99.90;;;;;;5071418;28;20382;-67
2023/01/12 09:03:59;;;;;;;21.67;3.20;;;10.30;99.90;;;;;;5071090;28;20053;-68
2023/01/12 09:06:27;;;;;;;26.25;3.53;;;10.30;99.90;;;;;;5054792;28;20113;-68
2023/01/12 09:08:55;;;;;;;26.75;3.75;;;10.30;99.90;;;;;;5071500;28;20791;-68
2023/01/12 09:11:21;;;;;;;19.00;3.45;;;10.40;99.90;;;;;;5071668;28;20080;-67
2023/01/12 09:13:47;;;;;;;17.70;3.60;;;10.40;99.90;;;;;;5051576;28;20064;-67
2023/01/12 09:16:15;;;;;;;22.63;3.70;;;10.40;99.90;;;;;;5071411;28;20568;-67
2023/01/12 09:18:41;;;;;;;22.67;3.53;;;10.40;99.90;;;;;;5071053;28;20093;-68
2023/01/12 09:21:15;;;;;;;20.60;3.38;;;10.40;99.90;;;;;;5070734;28;20040;-67
2023/01/12 09:23:42;;;;;;;24.42;3.38;;;10.30;99.90;;;;;;5070511;28;20037;-68
2023/01/12 09:26:14;;;;;;;22.20;3.53;;;10.30;99.90;;;;;;5070762;28;20391;-68
2023/01/12 09:28:40;;;;;;;24.52;4.43;;;10.30;99.90;;;;;;5070758;28;20097;-67
2023/01/12 09:31:07;;;;;;;20.65;3.20;;;10.40;99.90;;;;;;5070614;28;20043;-68
2023/01/12 09:33:33;;;;;;;25.92;4.60;;;10.50;99.90;;;;;;5070709;28;20055;-67
2023/01/12 09:36:00;;;;;;;19.83;4.00;;;10.50;99.90;;;;;;5070528;28;20115;-68
2023/01/12 09:38:26;;;;;;;17.90;2.97;;;10.50;99.90;;;;;;5070772;28;20040;-67
2023/01/12 09:40:52;;;;;;;28.77;3.40;;;10.60;99.90;;;;;;5070316;28;20177;-66
2023/01/12 09:48:46;;;;;;;19.27;3.00;;;10.70;99.90;;;;;;5070432;28;20101;-67
2023/01/12 09:51:35;;;;;;;23.15;2.63;;;10.80;99.90;;;;;;5070519;28;20457;-68
2023/01/12 09:54:03;;;;;;;23.80;3.28;;;10.80;99.90;;;;;;5070190;28;20090;-69
2023/01/12 09:56:35;;;;;;;19.70;3.40;;;10.80;99.90;;;;;;5070226;28;20115;-68
2023/01/12 09:59:10;;;;;;;18.52;3.28;;;10.80;99.90;;;;;;5070293;28;20044;-69
2023/01/12 10:01:36;;;;;;;16.05;2.50;;;10.80;99.90;;;;;;5070153;28;20045;-68
2023/01/12 10:04:04;;;;;;;16.00;3.00;;;10.80;99.90;;;;;;5069998;28;20132;-69
2023/01/12 10:06:30;;;;;;;16.23;2.63;;;10.80;99.90;;;;;;5070117;28;20119;-68
2023/01/12 10:09:01;;;;;;;18.17;3.25;;;10.80;99.90;;;;;;5069990;28;20411;-68
2023/01/12 10:11:46;;;;;;;14.88;3.50;;;10.80;99.90;;;;;;5053523;28;20119;-67
2023/01/12 10:14:33;;;;;;;17.80;3.00;;;10.80;99.90;;;;;;5069641;28;20036;-68
2023/01/12 10:17:33;;;;;;;14.68;3.03;;;10.80;99.90;;;;;;5069996;28;20052;-67
2023/01/12 10:20:26;;;;;;;15.23;2.80;;;10.90;99.90;;;;;;5069945;28;20052;-67
2023/01/12 10:22:58;;;;;;;16.00;3.78;;;10.90;99.90;;;;;;5053282;28;20044;-66
2023/01/12 10:25:34;;;;;;;18.65;3.55;;;10.80;99.90;;;;;;5070129;28;20640;-68
2023/01/12 10:28:07;;;;;;;16.10;2.72;;;10.80;99.90;;;;;;5069460;28;20056;-67
2023/01/12 10:30:36;;;;;;;16.88;2.70;;;10.80;99.90;;;;;;5069756;28;20087;-69
2023/01/12 10:33:33;;;;;;;19.25;3.15;;;10.70;99.90;;;;;;5069382;28;20090;-66
2023/01/12 10:36:17;;;;;;;19.05;3.22;;;10.70;99.90;;;;;;5068307;28;20048;-67
2023/01/12 10:39:03;;;;;;;17.77;3.05;;;10.60;99.90;;;;;;5069700;28;20062;-68
2023/01/12 10:41:31;;;;;;;21.50;3.90;;;10.50;99.90;;;;;;5069523;28;20094;-66
2023/01/12 10:43:59;;;;;;;26.55;3.28;;;10.50;99.90;;;;;;5069575;28;20048;-67
2023/01/12 10:46:30;;;;;;;20.50;2.83;;;10.40;99.90;;;;;;5052772;28;20029;-66
2023/01/12 10:49:17;;;;;;;21.92;4.18;;;10.40;99.90;;;;;;5069531;28;20040;-70
2023/01/12 10:51:56;;;;;;;23.92;3.35;;;10.40;99.90;;;;;;5069408;28;20033;-68
2023/01/12 10:54:27;;;;;;;25.45;3.17;;;10.40;99.90;;;;;;5069390;28;20047;-68
2023/01/12 10:57:00;;;;;;;24.13;4.75;;;10.40;99.90;;;;;;5069349;28;20086;-66
2023/01/12 10:59:38;;;;;;;20.35;3.45;;;10.50;99.90;;;;;;5069231;28;20042;-67
2023/01/12 11:02:07;;;;;;;23.83;3.58;;;10.50;99.90;;;;;;5052429;28;20048;-68
2023/01/12 11:04:39;;;;;;;28.23;4.93;;;10.60;99.90;;;;;;5069137;28;20087;-68
2023/01/12 11:07:09;;;;;;;23.42;3.95;;;10.60;99.90;;;;;;5069165;28;20188;-67
2023/01/12 11:09:36;;;;;;;23.17;4.95;;;10.70;99.90;;;;;;5069190;28;20062;-67
2023/01/12 11:12:05;;;;;;;25.27;3.88;;;10.70;99.90;;;;;;5069293;28;20445;-69
2023/01/12 11:14:34;;;;;;;20.92;3.55;;;10.80;99.90;;;;;;5069416;28;20041;-68
2023/01/12 11:17:35;;;;;;;19.45;2.60;;;10.80;99.90;;;;;;5069219;28;20527;-68
2023/01/12 11:20:12;;;;;;;19.58;3.67;;;10.80;99.90;;;;;;5011728;28;20060;-67
2023/01/12 11:22:39;;;;;;;18.33;3.33;;;10.90;99.90;;;;;;5011623;28;20041;-68
2023/01/12 11:25:23;;;;;;;18.83;3.97;;;11.00;99.90;;;;;;5011639;28;20459;-67
2023/01/12 11:28:03;;;;;;;21.75;3.05;;;11.00;99.90;;;;;;5011406;28;20050;-67
2023/01/12 11:30:44;;;;;;;17.63;2.85;;;11.10;99.90;;;;;;5011530;28;20045;-68
2023/01/12 11:33:19;;;;;;;19.33;3.33;;;11.10;99.90;;;;;;4995401;28;20052;-68
2023/01/12 11:36:00;;;;;;;12.77;2.67;;;11.10;99.90;;;;;;5011819;28;20555;-68
2023/01/12 11:38:33;;;;;;;16.77;3.67;;;11.20;99.90;;;;;;5011346;28;20148;-68
2023/01/12 11:40:58;;;;;;;20.58;2.92;;;11.20;99.90;;;;;;5011555;28;20041;-67
2023/01/12 11:43:56;;;;;;;18.15;3.38;;;11.20;99.90;;;;;;5011195;28;20099;-67
2023/01/12 11:46:43;;;;;;;19.30;3.03;;;11.20;99.90;;;;;;4916662;29;20153;-69
2023/01/12 11:49:27;;;;;;;18.35;2.90;;;11.20;99.90;;;;;;4937595;29;20044;-68
2023/01/12 11:51:56;;;;;;;20.08;3.60;;;11.10;99.90;;;;;;4953646;29;20046;-67
2023/01/12 11:54:23;;;;;;;20.42;3.42;;;11.10;99.90;;;;;;4937093;29;20047;-68
2023/01/12 11:56:54;;;;;;;21.58;3.42;;;11.10;99.90;;;;;;4962261;28;20056;-67
2023/01/12 11:59:28;;;;;;;18.42;3.05;;;11.10;99.90;;;;;;4995389;28;20049;-68
2023/01/12 12:02:12;;;;;;;20.67;3.83;;;11.10;99.90;;;;;;4995326;28;20128;-68
2023/01/12 12:04:49;;;;;;;22.67;3.70;;;11.10;99.90;;;;;;4995087;28;20098;-68
2023/01/12 12:07:38;;;;;;;22.92;3.08;;;10.90;99.90;;;;;;4995252;28;20034;-67
2023/01/12 12:10:13;;;;;;;26.52;4.00;;;10.80;99.90;;;;;;4995666;28;20489;-67
2023/01/12 12:12:42;;;;;;;22.52;3.50;;;10.80;99.90;;;;;;4995109;28;20046;-67
2023/01/12 12:15:37;;;;;;;22.40;3.30;;;10.80;99.90;;;;;;4995085;28;20045;-67
2023/01/12 12:18:23;;;;;;;19.50;3.58;;;10.80;99.90;;;;;;4995575;28;20489;-69
2023/01/12 12:21:24;;;;;;;20.55;3.83;;;10.80;99.90;;;;;;4994878;28;20073;-68
2023/01/12 12:24:17;;;;;;;25.40;3.78;;;10.90;99.90;;;;;;5007839;28;20068;-68
2023/01/12 12:26:56;;;;;;;21.95;3.58;;;10.90;99.90;;;;;;5029917;28;20041;-67
2023/01/12 12:29:24;;;;;;;17.92;3.45;;;11.00;99.90;;;;;;5014815;28;20419;-68
2023/01/12 12:32:22;;;;;;;23.80;3.22;;;11.00;99.90;;;;;;5014128;28;20080;-68
2023/01/12 12:35:12;;;;;;;17.95;2.63;;;11.00;99.90;;;;;;5013537;28;20060;-68
2023/01/12 12:37:59;;;;;;;15.90;2.97;;;11.10;99.90;;;;;;5014421;28;20599;-68
2023/01/12 12:46:37;;;;;;;21.83;3.50;;;11.20;99.90;;;;;;5030494;28;20080;-69
2023/01/12 12:49:16;;;;;;;19.27;3.10;;;11.20;99.90;;;;;;5030930;28;20158;-69
2023/01/12 12:51:43;;;;;;;22.88;3.75;;;11.30;99.90;;;;;;5030410;28;20046;-67
2023/01/12 12:54:17;;;;;;;22.83;3.88;;;11.30;99.90;;;;;;5030608;28;20075;-69
2023/01/12 12:56:43;;;;;;;15.80;3.40;;;11.30;99.90;;;;;;5030587;28;20053;-68
2023/01/12 12:59:32;;;;;;;18.73;3.17;;;11.30;99.90;;;;;;5033313;28;20041;-69
2023/01/12 13:01:59;;;;;;;15.70;3.33;;;11.30;99.90;;;;;;5054503;28;20087;-68
2023/01/12 13:04:45;;;;;;;22.25;3.53;;;11.30;99.90;;;;;;5071219;28;20515;-68
2023/01/12 13:07:18;;;;;;;18.55;3.88;;;11.30;99.90;;;;;;5071531;28;20475;-69
2023/01/12 13:09:45;;;;;;;15.50;3.05;;;11.30;99.90;;;;;;5071062;28;20123;-69
2023/01/12 13:12:30;;;;;;;21.77;3.65;;;11.30;99.90;;;;;;5071216;28;20046;-67
2023/01/12 13:15:20;;;;;;;14.90;3.25;;;11.30;99.90;;;;;;5070914;28;20044;-67
2023/01/12 13:17:47;;;;;;;17.15;2.60;;;11.30;99.90;;;;;;5070845;28;20044;-67
2023/01/12 13:20:13;;;;;;;18.67;3.20;;;11.30;99.90;;;;;;5071308;28;20479;-68
2023/01/12 13:22:43;;;;;;;22.17;3.05;;;11.20;99.90;;;;;;5070994;28;20044;-68
2023/01/12 13:25:14;;;;;;;15.93;2.70;;;11.20;99.90;;;;;;5071279;28;20051;-68
2023/01/12 13:27:54;;;;;;;13.80;2.63;;;11.10;99.90;;;;;;5071149;28;20036;-68
2023/01/12 13:30:39;;;;;;;14.77;2.58;;;11.00;99.90;;;;;;5067440;28;20358;-68
2023/01/12 13:33:28;;;;;;;7.82;1.83;;;10.90;99.90;;;;;;5070748;28;20036;-68
2023/01/12 13:36:04;;;;;;;9.35;1.85;;;10.80;99.90;;;;;;5070552;28;20041;-67
2023/01/12 13:38:35;;;;;;;12.40;2.30;;;10.80;99.90;;;;;;5070523;28;20036;-68
2023/01/12 13:41:01;;;;;;;14.27;3.22;;;10.70;99.90;;;;;;5070597;28;20037;-69
2023/01/12 13:43:33;;;;;;;14.13;2.50;;;10.70;99.90;;;;;;5054146;28;20033;-67